sensor_id;sensor_type;location;lat;lon;timestamp;P1;durP1;ratioP1;P2;durP2;ratioP2
72573;SDS011;60603;52.548;13.420;2023-11-19T00:00:07;8.23;;;4.78;;
72573;SDS011;60603;52.548;13.420;2023-11-19T00:02:58;8.40;;;4.53;;
72573;SDS011;60603;52.548;13.420;2023-11-19T00:05:25;8.80;;;4.85;;
72573;SDS011;60603;52.548;13.420;2023-11-19T00:07:54;10.27;;;4.53;;
72573;SDS011;60603;52.548;13.420;2023-11-19T00:10:21;9.65;;;4.97;;
72573;SDS011;60603;52.548;13.420;2023-11-19T00:12:48;8.32;;;4.70;;
72573;SDS011;60603;52.548;13.420;2023-11-19T00:15:16;9.25;;;5.25;;
72573;SDS011;60603;52.548;13.420;2023-11-19T00:17:45;9.40;;;5.22;;
72573;SDS011;60603;52.548;13.420;2023-11-19T00:20:19;9.23;;;4.70;;
72573;SDS011;60603;52.548;13.420;2023-11-19T00:22:48;6.95;;;4.43;;
72573;SDS011;60603;52.548;13.420;2023-11-19T00:25:18;8.30;;;4.30;;
72573;SDS011;60603;52.548;13.420;2023-11-19T00:27:45;9.00;;;4.57;;
72573;SDS011;60603;52.548;13.420;2023-11-19T00:30:13;10.38;;;5.13;;
72573;SDS011;60603;52.548;13.420;2023-11-19T00:32:41;9.43;;;4.95;;
72573;SDS011;60603;52.548;13.420;2023-11-19T00:35:08;9.27;;;5.07;;
72573;SDS011;60603;52.548;13.420;2023-11-19T00:37:36;9.70;;;5.00;;
72573;SDS011;60603;52.548;13.420;2023-11-19T00:40:03;9.63;;;4.78;;
72573;SDS011;60603;52.548;13.420;2023-11-19T00:42:32;8.43;;;4.53;;
72573;SDS011;60603;52.548;13.420;2023-11-19T00:44:59;9.23;;;4.65;;
72573;SDS011;60603;52.548;13.420;2023-11-19T00:47:27;8.98;;;4.15;;
72573;SDS011;60603;52.548;13.420;2023-11-19T00:49:54;9.43;;;4.70;;
72573;SDS011;60603;52.548;13.420;2023-11-19T00:52:21;7.22;;;4.30;;
72573;SDS011;60603;52.548;13.420;2023-11-19T00:54:48;9.15;;;4.28;;
72573;SDS011;60603;52.548;13.420;2023-11-19T00:57:15;9.50;;;4.82;;
72573;SDS011;60603;52.548;13.420;2023-11-19T00:59:43;8.68;;;4.65;;
72573;SDS011;60603;52.548;13.420;2023-11-19T01:02:09;8.32;;;4.00;;
72573;SDS011;60603;52.548;13.420;2023-11-19T01:04:37;8.10;;;4.68;;
72573;SDS011;60603;52.548;13.420;2023-11-19T01:07:05;9.55;;;4.47;;
72573;SDS011;60603;52.548;13.420;2023-11-19T01:09:41;9.45;;;4.57;;
72573;SDS011;60603;52.548;13.420;2023-11-19T01:12:08;8.73;;;4.38;;
72573;SDS011;60603;52.548;13.420;2023-11-19T01:14:37;9.80;;;5.00;;
72573;SDS011;60603;52.548;13.420;2023-11-19T01:17:03;11.30;;;4.88;;
72573;SDS011;60603;52.548;13.420;2023-11-19T01:19:31;8.52;;;4.43;;
72573;SDS011;60603;52.548;13.420;2023-11-19T01:21:58;8.68;;;4.45;;
72573;SDS011;60603;52.548;13.420;2023-11-19T01:24:25;8.20;;;4.25;;
72573;SDS011;60603;52.548;13.420;2023-11-19T01:26:55;8.27;;;4.30;;
72573;SDS011;60603;52.548;13.420;2023-11-19T01:29:24;8.18;;;4.38;;
72573;SDS011;60603;52.548;13.420;2023-11-19T01:31:51;8.05;;;4.07;;
72573;SDS011;60603;52.548;13.420;2023-11-19T01:34:18;8.75;;;4.40;;
72573;SDS011;60603;52.548;13.420;2023-11-19T01:36:46;8.52;;;3.78;;
72573;SDS011;60603;52.548;13.420;2023-11-19T01:39:13;6.53;;;3.60;;
72573;SDS011;60603;52.548;13.420;2023-11-19T01:41:42;8.55;;;3.70;;
72573;SDS011;60603;52.548;13.420;2023-11-19T01:44:09;8.50;;;4.28;;
72573;SDS011;60603;52.548;13.420;2023-11-19T01:46:40;7.75;;;3.85;;
72573;SDS011;60603;52.548;13.420;2023-11-19T01:49:08;9.23;;;4.28;;
72573;SDS011;60603;52.548;13.420;2023-11-19T01:51:35;8.85;;;4.10;;
72573;SDS011;60603;52.548;13.420;2023-11-19T01:54:02;7.40;;;3.95;;
72573;SDS011;60603;52.548;13.420;2023-11-19T01:56:29;8.45;;;3.30;;
72573;SDS011;60603;52.548;13.420;2023-11-19T01:58:57;8.25;;;4.40;;
72573;SDS011;60603;52.548;13.420;2023-11-19T02:01:24;7.43;;;3.60;;
72573;SDS011;60603;52.548;13.420;2023-11-19T02:03:51;7.95;;;4.20;;
72573;SDS011;60603;52.548;13.420;2023-11-19T02:06:19;7.90;;;3.97;;
72573;SDS011;60603;52.548;13.420;2023-11-19T02:08:46;6.65;;;3.70;;
72573;SDS011;60603;52.548;13.420;2023-11-19T02:11:12;9.15;;;4.45;;
72573;SDS011;60603;52.548;13.420;2023-11-19T02:13:39;7.40;;;4.25;;
72573;SDS011;60603;52.548;13.420;2023-11-19T02:16:07;7.82;;;4.05;;
72573;SDS011;60603;52.548;13.420;2023-11-19T02:18:38;7.30;;;3.10;;
72573;SDS011;60603;52.548;13.420;2023-11-19T02:21:04;7.57;;;3.75;;
72573;SDS011;60603;52.548;13.420;2023-11-19T02:23:32;7.70;;;4.32;;
72573;SDS011;60603;52.548;13.420;2023-11-19T02:26:02;8.52;;;4.10;;
72573;SDS011;60603;52.548;13.420;2023-11-19T02:28:49;8.98;;;3.50;;
72573;SDS011;60603;52.548;13.420;2023-11-19T02:31:16;8.45;;;4.32;;
72573;SDS011;60603;52.548;13.420;2023-11-19T02:33:44;9.07;;;4.28;;
72573;SDS011;60603;52.548;13.420;2023-11-19T02:36:11;8.70;;;4.40;;
72573;SDS011;60603;52.548;13.420;2023-11-19T02:38:38;8.27;;;4.13;;
72573;SDS011;60603;52.548;13.420;2023-11-19T02:41:05;7.82;;;4.20;;
72573;SDS011;60603;52.548;13.420;2023-11-19T02:43:33;7.72;;;3.47;;
72573;SDS011;60603;52.548;13.420;2023-11-19T02:46:03;8.23;;;3.88;;
72573;SDS011;60603;52.548;13.420;2023-11-19T02:48:36;6.50;;;3.40;;
72573;SDS011;60603;52.548;13.420;2023-11-19T02:51:03;7.53;;;3.78;;
72573;SDS011;60603;52.548;13.420;2023-11-19T02:53:31;8.93;;;3.65;;
72573;SDS011;60603;52.548;13.420;2023-11-19T02:55:58;6.95;;;3.42;;
72573;SDS011;60603;52.548;13.420;2023-11-19T02:58:32;6.63;;;3.00;;
72573;SDS011;60603;52.548;13.420;2023-11-19T03:01:00;7.57;;;3.47;;
72573;SDS011;60603;52.548;13.420;2023-11-19T03:03:36;6.97;;;3.22;;
72573;SDS011;60603;52.548;13.420;2023-11-19T03:06:07;6.93;;;3.35;;
72573;SDS011;60603;52.548;13.420;2023-11-19T03:08:36;6.35;;;3.33;;
72573;SDS011;60603;52.548;13.420;2023-11-19T03:11:02;6.65;;;3.08;;
72573;SDS011;60603;52.548;13.420;2023-11-19T03:13:31;8.38;;;3.90;;
72573;SDS011;60603;52.548;13.420;2023-11-19T03:15:58;7.45;;;3.45;;
72573;SDS011;60603;52.548;13.420;2023-11-19T03:18:25;5.72;;;2.90;;
72573;SDS011;60603;52.548;13.420;2023-11-19T03:20:52;7.05;;;3.03;;
72573;SDS011;60603;52.548;13.420;2023-11-19T03:23:19;6.20;;;3.13;;
72573;SDS011;60603;52.548;13.420;2023-11-19T03:25:46;7.05;;;2.92;;
72573;SDS011;60603;52.548;13.420;2023-11-19T03:28:13;5.65;;;2.70;;
72573;SDS011;60603;52.548;13.420;2023-11-19T03:30:40;6.72;;;2.90;;
72573;SDS011;60603;52.548;13.420;2023-11-19T03:33:07;7.82;;;3.80;;
72573;SDS011;60603;52.548;13.420;2023-11-19T03:35:34;6.03;;;2.85;;
72573;SDS011;60603;52.548;13.420;2023-11-19T03:38:01;7.60;;;3.83;;
72573;SDS011;60603;52.548;13.420;2023-11-19T03:40:28;6.53;;;3.20;;
72573;SDS011;60603;52.548;13.420;2023-11-19T03:42:58;7.45;;;3.63;;
72573;SDS011;60603;52.548;13.420;2023-11-19T03:45:25;6.80;;;3.80;;
72573;SDS011;60603;52.548;13.420;2023-11-19T03:47:52;6.97;;;3.60;;
72573;SDS011;60603;52.548;13.420;2023-11-19T03:50:19;6.22;;;3.33;;
72573;SDS011;60603;52.548;13.420;2023-11-19T03:52:47;7.30;;;3.58;;
72573;SDS011;60603;52.548;13.420;2023-11-19T03:55:14;9.00;;;3.88;;
72573;SDS011;60603;52.548;13.420;2023-11-19T03:57:42;6.90;;;4.20;;
72573;SDS011;60603;52.548;13.420;2023-11-19T04:00:09;7.32;;;3.58;;
72573;SDS011;60603;52.548;13.420;2023-11-19T04:02:37;8.90;;;4.45;;
72573;SDS011;60603;52.548;13.420;2023-11-19T04:05:04;8.27;;;3.90;;
72573;SDS011;60603;52.548;13.420;2023-11-19T04:07:32;9.05;;;4.95;;
72573;SDS011;60603;52.548;13.420;2023-11-19T04:09:59;9.32;;;4.32;;
72573;SDS011;60603;52.548;13.420;2023-11-19T04:12:26;9.68;;;3.95;;
72573;SDS011;60603;52.548;13.420;2023-11-19T04:14:53;9.98;;;4.90;;
72573;SDS011;60603;52.548;13.420;2023-11-19T04:17:23;8.65;;;5.15;;
72573;SDS011;60603;52.548;13.420;2023-11-19T04:19:49;9.10;;;4.57;;
72573;SDS011;60603;52.548;13.420;2023-11-19T04:22:17;8.70;;;3.88;;
72573;SDS011;60603;52.548;13.420;2023-11-19T04:24:43;8.80;;;4.38;;
72573;SDS011;60603;52.548;13.420;2023-11-19T04:27:12;10.93;;;4.47;;
72573;SDS011;60603;52.548;13.420;2023-11-19T04:29:39;9.77;;;5.10;;
72573;SDS011;60603;52.548;13.420;2023-11-19T04:32:06;8.35;;;4.63;;
72573;SDS011;60603;52.548;13.420;2023-11-19T04:34:33;11.73;;;4.70;;
72573;SDS011;60603;52.548;13.420;2023-11-19T04:37:00;9.07;;;4.78;;
72573;SDS011;60603;52.548;13.420;2023-11-19T04:39:33;11.23;;;4.93;;
72573;SDS011;60603;52.548;13.420;2023-11-19T04:42:00;10.10;;;5.35;;
72573;SDS011;60603;52.548;13.420;2023-11-19T04:44:27;9.40;;;4.68;;
72573;SDS011;60603;52.548;13.420;2023-11-19T04:46:56;9.40;;;4.70;;
72573;SDS011;60603;52.548;13.420;2023-11-19T04:49:23;9.93;;;4.65;;
72573;SDS011;60603;52.548;13.420;2023-11-19T04:51:50;9.00;;;4.82;;
72573;SDS011;60603;52.548;13.420;2023-11-19T04:54:17;11.73;;;5.55;;
72573;SDS011;60603;52.548;13.420;2023-11-19T04:56:46;13.23;;;5.63;;
72573;SDS011;60603;52.548;13.420;2023-11-19T04:59:14;11.13;;;4.97;;
72573;SDS011;60603;52.548;13.420;2023-11-19T05:01:41;10.90;;;5.63;;
72573;SDS011;60603;52.548;13.420;2023-11-19T05:04:08;10.80;;;5.68;;
72573;SDS011;60603;52.548;13.420;2023-11-19T05:06:35;11.40;;;5.63;;
72573;SDS011;60603;52.548;13.420;2023-11-19T05:09:02;12.40;;;5.93;;
72573;SDS011;60603;52.548;13.420;2023-11-19T05:11:34;11.20;;;6.05;;
72573;SDS011;60603;52.548;13.420;2023-11-19T05:14:04;10.60;;;5.47;;
72573;SDS011;60603;52.548;13.420;2023-11-19T05:16:31;10.32;;;5.75;;
72573;SDS011;60603;52.548;13.420;2023-11-19T05:18:59;11.60;;;6.18;;
72573;SDS011;60603;52.548;13.420;2023-11-19T05:21:26;11.43;;;5.63;;
72573;SDS011;60603;52.548;13.420;2023-11-19T05:23:53;14.30;;;6.80;;
72573;SDS011;60603;52.548;13.420;2023-11-19T05:26:21;14.93;;;5.57;;
72573;SDS011;60603;52.548;13.420;2023-11-19T05:28:49;11.73;;;5.72;;
72573;SDS011;60603;52.548;13.420;2023-11-19T05:31:16;12.23;;;6.13;;
72573;SDS011;60603;52.548;13.420;2023-11-19T05:33:44;10.65;;;5.82;;
72573;SDS011;60603;52.548;13.420;2023-11-19T05:36:12;9.23;;;5.00;;
72573;SDS011;60603;52.548;13.420;2023-11-19T05:38:41;13.25;;;6.25;;
72573;SDS011;60603;52.548;13.420;2023-11-19T05:41:08;12.43;;;5.70;;
72573;SDS011;60603;52.548;13.420;2023-11-19T05:43:35;12.25;;;5.18;;
72573;SDS011;60603;52.548;13.420;2023-11-19T05:46:02;9.77;;;5.38;;
72573;SDS011;60603;52.548;13.420;2023-11-19T05:48:29;8.20;;;4.93;;
72573;SDS011;60603;52.548;13.420;2023-11-19T05:50:56;8.57;;;4.40;;
72573;SDS011;60603;52.548;13.420;2023-11-19T05:53:23;9.82;;;4.82;;
72573;SDS011;60603;52.548;13.420;2023-11-19T05:55:51;10.20;;;4.75;;
72573;SDS011;60603;52.548;13.420;2023-11-19T05:58:26;9.93;;;5.32;;
72573;SDS011;60603;52.548;13.420;2023-11-19T06:00:56;9.35;;;4.72;;
72573;SDS011;60603;52.548;13.420;2023-11-19T06:03:23;9.13;;;4.68;;
72573;SDS011;60603;52.548;13.420;2023-11-19T06:05:50;8.82;;;4.53;;
72573;SDS011;60603;52.548;13.420;2023-11-19T06:08:17;11.95;;;5.15;;
72573;SDS011;60603;52.548;13.420;2023-11-19T06:10:44;8.80;;;4.50;;
72573;SDS011;60603;52.548;13.420;2023-11-19T06:13:16;10.48;;;4.93;;
72573;SDS011;60603;52.548;13.420;2023-11-19T06:15:43;10.20;;;4.90;;
72573;SDS011;60603;52.548;13.420;2023-11-19T06:18:10;8.55;;;4.25;;
72573;SDS011;60603;52.548;13.420;2023-11-19T06:20:40;8.02;;;4.63;;
72573;SDS011;60603;52.548;13.420;2023-11-19T06:23:09;9.25;;;4.43;;
72573;SDS011;60603;52.548;13.420;2023-11-19T06:25:36;9.20;;;4.40;;
72573;SDS011;60603;52.548;13.420;2023-11-19T06:28:03;7.75;;;4.57;;
72573;SDS011;60603;52.548;13.420;2023-11-19T06:30:31;9.40;;;4.93;;
72573;SDS011;60603;52.548;13.420;2023-11-19T06:32:59;9.43;;;4.70;;
72573;SDS011;60603;52.548;13.420;2023-11-19T06:35:27;8.13;;;4.03;;
72573;SDS011;60603;52.548;13.420;2023-11-19T06:37:56;8.05;;;4.28;;
72573;SDS011;60603;52.548;13.420;2023-11-19T06:40:23;9.32;;;4.95;;
72573;SDS011;60603;52.548;13.420;2023-11-19T06:42:50;7.80;;;4.72;;
72573;SDS011;60603;52.548;13.420;2023-11-19T06:45:19;10.80;;;5.07;;
72573;SDS011;60603;52.548;13.420;2023-11-19T06:47:46;8.88;;;4.18;;
72573;SDS011;60603;52.548;13.420;2023-11-19T06:50:13;8.90;;;4.05;;
72573;SDS011;60603;52.548;13.420;2023-11-19T06:52:41;7.93;;;3.92;;
72573;SDS011;60603;52.548;13.420;2023-11-19T06:55:08;9.13;;;4.47;;
72573;SDS011;60603;52.548;13.420;2023-11-19T06:57:35;7.63;;;3.97;;
72573;SDS011;60603;52.548;13.420;2023-11-19T07:00:02;8.77;;;4.00;;
72573;SDS011;60603;52.548;13.420;2023-11-19T07:02:31;12.18;;;4.90;;
72573;SDS011;60603;52.548;13.420;2023-11-19T07:04:58;7.45;;;3.88;;
72573;SDS011;60603;52.548;13.420;2023-11-19T07:07:26;10.02;;;4.30;;
72573;SDS011;60603;52.548;13.420;2023-11-19T07:09:53;8.52;;;4.35;;
72573;SDS011;60603;52.548;13.420;2023-11-19T07:12:20;7.20;;;3.90;;
72573;SDS011;60603;52.548;13.420;2023-11-19T07:14:47;8.45;;;4.15;;
72573;SDS011;60603;52.548;13.420;2023-11-19T07:17:13;6.78;;;3.95;;
72573;SDS011;60603;52.548;13.420;2023-11-19T07:19:42;8.40;;;4.32;;
72573;SDS011;60603;52.548;13.420;2023-11-19T07:22:09;7.97;;;4.18;;
72573;SDS011;60603;52.548;13.420;2023-11-19T07:24:41;7.88;;;4.47;;
72573;SDS011;60603;52.548;13.420;2023-11-19T07:27:08;8.10;;;3.97;;
72573;SDS011;60603;52.548;13.420;2023-11-19T07:29:35;8.68;;;4.13;;
72573;SDS011;60603;52.548;13.420;2023-11-19T07:32:04;8.38;;;4.65;;
72573;SDS011;60603;52.548;13.420;2023-11-19T07:34:32;9.07;;;4.45;;
72573;SDS011;60603;52.548;13.420;2023-11-19T07:36:58;7.20;;;3.97;;
72573;SDS011;60603;52.548;13.420;2023-11-19T07:39:29;7.65;;;3.75;;
72573;SDS011;60603;52.548;13.420;2023-11-19T07:41:56;8.10;;;4.40;;
72573;SDS011;60603;52.548;13.420;2023-11-19T07:44:23;7.82;;;4.35;;
72573;SDS011;60603;52.548;13.420;2023-11-19T07:46:50;7.50;;;4.00;;
72573;SDS011;60603;52.548;13.420;2023-11-19T07:49:17;9.65;;;4.78;;
72573;SDS011;60603;52.548;13.420;2023-11-19T07:51:44;8.75;;;4.55;;
72573;SDS011;60603;52.548;13.420;2023-11-19T07:54:11;9.32;;;4.55;;
72573;SDS011;60603;52.548;13.420;2023-11-19T07:56:38;8.90;;;4.57;;
72573;SDS011;60603;52.548;13.420;2023-11-19T07:59:05;7.80;;;4.40;;
72573;SDS011;60603;52.548;13.420;2023-11-19T08:01:33;8.52;;;4.30;;
72573;SDS011;60603;52.548;13.420;2023-11-19T08:04:00;8.38;;;4.82;;
72573;SDS011;60603;52.548;13.420;2023-11-19T08:06:28;10.70;;;4.55;;
72573;SDS011;60603;52.548;13.420;2023-11-19T08:08:55;11.02;;;4.97;;
72573;SDS011;60603;52.548;13.420;2023-11-19T08:11:22;8.43;;;4.25;;
72573;SDS011;60603;52.548;13.420;2023-11-19T08:13:49;8.10;;;4.35;;
72573;SDS011;60603;52.548;13.420;2023-11-19T08:16:16;7.68;;;4.13;;
72573;SDS011;60603;52.548;13.420;2023-11-19T08:18:43;10.00;;;4.63;;
72573;SDS011;60603;52.548;13.420;2023-11-19T08:21:10;8.73;;;4.32;;
72573;SDS011;60603;52.548;13.420;2023-11-19T08:23:37;9.77;;;5.43;;
72573;SDS011;60603;52.548;13.420;2023-11-19T08:26:05;8.55;;;4.72;;
72573;SDS011;60603;52.548;13.420;2023-11-19T08:28:33;9.55;;;3.97;;
72573;SDS011;60603;52.548;13.420;2023-11-19T08:31:01;9.20;;;4.30;;
72573;SDS011;60603;52.548;13.420;2023-11-19T08:33:31;9.23;;;4.75;;
72573;SDS011;60603;52.548;13.420;2023-11-19T08:35:58;7.53;;;4.45;;
72573;SDS011;60603;52.548;13.420;2023-11-19T08:38:25;10.85;;;5.85;;
72573;SDS011;60603;52.548;13.420;2023-11-19T08:40:55;10.20;;;4.95;;
72573;SDS011;60603;52.548;13.420;2023-11-19T08:43:26;8.57;;;5.25;;
72573;SDS011;60603;52.548;13.420;2023-11-19T08:45:53;9.55;;;4.65;;
72573;SDS011;60603;52.548;13.420;2023-11-19T08:48:20;6.88;;;4.40;;
72573;SDS011;60603;52.548;13.420;2023-11-19T08:50:47;8.85;;;4.40;;
72573;SDS011;60603;52.548;13.420;2023-11-19T08:53:15;7.25;;;4.25;;
72573;SDS011;60603;52.548;13.420;2023-11-19T08:55:42;7.35;;;4.18;;
72573;SDS011;60603;52.548;13.420;2023-11-19T08:58:09;7.93;;;4.60;;
72573;SDS011;60603;52.548;13.420;2023-11-19T09:00:35;10.00;;;4.80;;
72573;SDS011;60603;52.548;13.420;2023-11-19T09:03:02;9.13;;;4.50;;
72573;SDS011;60603;52.548;13.420;2023-11-19T09:05:30;8.82;;;4.35;;
72573;SDS011;60603;52.548;13.420;2023-11-19T09:07:57;8.70;;;4.82;;
72573;SDS011;60603;52.548;13.420;2023-11-19T09:10:24;9.52;;;4.78;;
72573;SDS011;60603;52.548;13.420;2023-11-19T09:12:51;8.50;;;4.53;;
72573;SDS011;60603;52.548;13.420;2023-11-19T09:15:21;7.43;;;3.90;;
72573;SDS011;60603;52.548;13.420;2023-11-19T09:17:48;8.45;;;4.47;;
72573;SDS011;60603;52.548;13.420;2023-11-19T09:20:15;7.63;;;4.32;;
72573;SDS011;60603;52.548;13.420;2023-11-19T09:22:42;6.95;;;4.05;;
72573;SDS011;60603;52.548;13.420;2023-11-19T09:25:09;8.38;;;4.18;;
72573;SDS011;60603;52.548;13.420;2023-11-19T09:27:36;6.35;;;3.97;;
72573;SDS011;60603;52.548;13.420;2023-11-19T09:30:03;7.25;;;3.30;;
72573;SDS011;60603;52.548;13.420;2023-11-19T09:32:31;7.60;;;4.25;;
72573;SDS011;60603;52.548;13.420;2023-11-19T09:34:58;6.15;;;3.33;;
72573;SDS011;60603;52.548;13.420;2023-11-19T09:37:25;7.97;;;4.25;;
72573;SDS011;60603;52.548;13.420;2023-11-19T09:39:52;8.63;;;4.22;;
72573;SDS011;60603;52.548;13.420;2023-11-19T09:42:20;6.88;;;3.60;;
72573;SDS011;60603;52.548;13.420;2023-11-19T09:44:47;6.50;;;3.47;;
72573;SDS011;60603;52.548;13.420;2023-11-19T09:47:14;6.05;;;2.97;;
72573;SDS011;60603;52.548;13.420;2023-11-19T09:49:43;6.18;;;2.83;;
72573;SDS011;60603;52.548;13.420;2023-11-19T09:52:10;7.55;;;3.20;;
72573;SDS011;60603;52.548;13.420;2023-11-19T09:54:37;7.20;;;3.47;;
72573;SDS011;60603;52.548;13.420;2023-11-19T09:57:04;9.77;;;3.13;;
72573;SDS011;60603;52.548;13.420;2023-11-19T09:59:35;7.00;;;3.15;;
72573;SDS011;60603;52.548;13.420;2023-11-19T10:02:03;9.15;;;3.40;;
72573;SDS011;60603;52.548;13.420;2023-11-19T10:04:31;6.93;;;3.58;;
72573;SDS011;60603;52.548;13.420;2023-11-19T10:07:01;6.93;;;2.95;;
72573;SDS011;60603;52.548;13.420;2023-11-19T10:09:28;8.75;;;3.45;;
72573;SDS011;60603;52.548;13.420;2023-11-19T10:11:55;6.13;;;3.17;;
72573;SDS011;60603;52.548;13.420;2023-11-19T10:14:23;4.97;;;2.67;;
72573;SDS011;60603;52.548;13.420;2023-11-19T10:16:50;5.65;;;3.00;;
72573;SDS011;60603;52.548;13.420;2023-11-19T10:19:20;8.00;;;3.45;;
72573;SDS011;60603;52.548;13.420;2023-11-19T10:21:48;7.95;;;3.33;;
72573;SDS011;60603;52.548;13.420;2023-11-19T10:24:15;7.70;;;3.30;;
72573;SDS011;60603;52.548;13.420;2023-11-19T10:27:01;4.72;;;2.22;;
72573;SDS011;60603;52.548;13.420;2023-11-19T10:29:31;5.63;;;2.85;;
72573;SDS011;60603;52.548;13.420;2023-11-19T10:31:58;6.68;;;2.42;;
72573;SDS011;60603;52.548;13.420;2023-11-19T10:34:45;6.93;;;2.60;;
72573;SDS011;60603;52.548;13.420;2023-11-19T10:37:46;5.75;;;2.30;;
72573;SDS011;60603;52.548;13.420;2023-11-19T10:40:05;5.68;;;2.53;;
72573;SDS011;60603;52.548;13.420;2023-11-19T10:42:33;5.53;;;2.13;;
72573;SDS011;60603;52.548;13.420;2023-11-19T10:44:59;6.95;;;1.95;;
72573;SDS011;60603;52.548;13.420;2023-11-19T10:47:26;10.98;;;3.65;;
72573;SDS011;60603;52.548;13.420;2023-11-19T10:49:58;6.95;;;2.00;;
72573;SDS011;60603;52.548;13.420;2023-11-19T10:52:25;5.93;;;2.17;;
72573;SDS011;60603;52.548;13.420;2023-11-19T10:54:54;6.80;;;2.60;;
72573;SDS011;60603;52.548;13.420;2023-11-19T10:57:23;4.93;;;1.92;;
72573;SDS011;60603;52.548;13.420;2023-11-19T10:59:55;5.72;;;2.28;;
72573;SDS011;60603;52.548;13.420;2023-11-19T11:02:28;7.57;;;2.22;;
72573;SDS011;60603;52.548;13.420;2023-11-19T11:04:56;7.63;;;2.30;;
72573;SDS011;60603;52.548;13.420;2023-11-19T11:07:24;6.30;;;3.13;;
72573;SDS011;60603;52.548;13.420;2023-11-19T11:10:02;6.90;;;2.38;;
72573;SDS011;60603;52.548;13.420;2023-11-19T11:12:33;6.35;;;2.50;;
72573;SDS011;60603;52.548;13.420;2023-11-19T11:15:03;6.70;;;2.65;;
72573;SDS011;60603;52.548;13.420;2023-11-19T11:17:33;5.88;;;2.45;;
72573;SDS011;60603;52.548;13.420;2023-11-19T11:20:00;7.88;;;2.58;;
72573;SDS011;60603;52.548;13.420;2023-11-19T11:22:27;9.20;;;3.17;;
72573;SDS011;60603;52.548;13.420;2023-11-19T11:25:13;9.15;;;2.40;;
72573;SDS011;60603;52.548;13.420;2023-11-19T11:38:08;11.73;;;2.10;;
72573;SDS011;60603;52.548;13.420;2023-11-19T11:40:35;9.77;;;3.08;;
72573;SDS011;60603;52.548;13.420;2023-11-19T11:43:03;4.95;;;2.58;;
72573;SDS011;60603;52.548;13.420;2023-11-19T11:45:35;10.40;;;3.40;;
72573;SDS011;60603;52.548;13.420;2023-11-19T11:48:08;10.30;;;2.47;;
72573;SDS011;60603;52.548;13.420;2023-11-19T11:50:47;8.25;;;2.17;;
72573;SDS011;60603;52.548;13.420;2023-11-19T11:53:24;5.03;;;1.95;;
72573;SDS011;60603;52.548;13.420;2023-11-19T11:55:53;10.05;;;2.70;;
72573;SDS011;60603;52.548;13.420;2023-11-19T11:58:26;12.57;;;3.15;;
72573;SDS011;60603;52.548;13.420;2023-11-19T12:01:00;14.52;;;3.58;;
72573;SDS011;60603;52.548;13.420;2023-11-19T12:03:28;11.75;;;2.58;;
72573;SDS011;60603;52.548;13.420;2023-11-19T12:05:56;16.48;;;3.38;;
72573;SDS011;60603;52.548;13.420;2023-11-19T12:08:25;8.85;;;2.80;;
72573;SDS011;60603;52.548;13.420;2023-11-19T12:10:54;6.40;;;2.40;;
72573;SDS011;60603;52.548;13.420;2023-11-19T12:13:46;10.45;;;2.92;;
72573;SDS011;60603;52.548;13.420;2023-11-19T12:16:19;8.07;;;2.65;;
72573;SDS011;60603;52.548;13.420;2023-11-19T12:18:48;13.32;;;3.45;;
72573;SDS011;60603;52.548;13.420;2023-11-19T12:21:28;9.52;;;3.00;;
72573;SDS011;60603;52.548;13.420;2023-11-19T12:23:57;11.10;;;2.90;;
72573;SDS011;60603;52.548;13.420;2023-11-19T12:26:32;11.05;;;3.10;;
72573;SDS011;60603;52.548;13.420;2023-11-19T12:29:01;13.80;;;3.40;;
72573;SDS011;60603;52.548;13.420;2023-11-19T12:31:34;10.85;;;2.55;;
72573;SDS011;60603;52.548;13.420;2023-11-19T12:34:05;18.05;;;4.45;;
72573;SDS011;60603;52.548;13.420;2023-11-19T12:36:33;15.50;;;3.88;;
72573;SDS011;60603;52.548;13.420;2023-11-19T12:39:00;17.65;;;3.15;;
72573;SDS011;60603;52.548;13.420;2023-11-19T12:41:27;14.32;;;2.40;;
72573;SDS011;60603;52.548;13.420;2023-11-19T12:44:08;16.73;;;2.88;;
72573;SDS011;60603;52.548;13.420;2023-11-19T12:46:35;15.38;;;2.83;;
72573;SDS011;60603;52.548;13.420;2023-11-19T12:49:02;10.80;;;2.70;;
72573;SDS011;60603;52.548;13.420;2023-11-19T12:51:32;10.80;;;3.03;;
72573;SDS011;60603;52.548;13.420;2023-11-19T12:54:00;10.30;;;3.50;;
72573;SDS011;60603;52.548;13.420;2023-11-19T12:56:27;11.73;;;3.75;;
72573;SDS011;60603;52.548;13.420;2023-11-19T12:58:54;16.25;;;3.53;;
72573;SDS011;60603;52.548;13.420;2023-11-19T13:01:21;13.35;;;3.25;;
72573;SDS011;60603;52.548;13.420;2023-11-19T13:03:48;13.13;;;4.03;;
72573;SDS011;60603;52.548;13.420;2023-11-19T13:06:16;8.45;;;2.60;;
72573;SDS011;60603;52.548;13.420;2023-11-19T13:08:47;17.23;;;4.45;;
72573;SDS011;60603;52.548;13.420;2023-11-19T13:11:29;10.75;;;3.13;;
72573;SDS011;60603;52.548;13.420;2023-11-19T13:14:01;12.65;;;3.05;;
72573;SDS011;60603;52.548;13.420;2023-11-19T13:16:36;18.83;;;3.10;;
72573;SDS011;60603;52.548;13.420;2023-11-19T13:19:03;15.95;;;4.07;;
72573;SDS011;60603;52.548;13.420;2023-11-19T13:21:31;13.27;;;3.40;;
72573;SDS011;60603;52.548;13.420;2023-11-19T13:23:58;13.30;;;3.47;;
72573;SDS011;60603;52.548;13.420;2023-11-19T13:26:25;13.90;;;3.08;;
72573;SDS011;60603;52.548;13.420;2023-11-19T13:28:52;12.52;;;3.60;;
72573;SDS011;60603;52.548;13.420;2023-11-19T13:31:18;16.80;;;3.42;;
72573;SDS011;60603;52.548;13.420;2023-11-19T13:33:46;21.77;;;5.32;;
72573;SDS011;60603;52.548;13.420;2023-11-19T13:36:13;13.75;;;3.70;;
72573;SDS011;60603;52.548;13.420;2023-11-19T13:38:43;11.40;;;3.28;;
72573;SDS011;60603;52.548;13.420;2023-11-19T13:43:40;13.30;;;3.67;;
72573;SDS011;60603;52.548;13.420;2023-11-19T13:46:07;16.23;;;3.05;;
72573;SDS011;60603;52.548;13.420;2023-11-19T13:48:37;12.52;;;2.80;;
72573;SDS011;60603;52.548;13.420;2023-11-19T13:51:04;15.75;;;3.53;;
72573;SDS011;60603;52.548;13.420;2023-11-19T13:53:32;12.80;;;3.00;;
72573;SDS011;60603;52.548;13.420;2023-11-19T13:56:17;16.27;;;2.88;;
72573;SDS011;60603;52.548;13.420;2023-11-19T13:58:44;15.65;;;4.65;;
72573;SDS011;60603;52.548;13.420;2023-11-19T14:01:11;9.73;;;3.03;;
72573;SDS011;60603;52.548;13.420;2023-11-19T14:03:40;18.38;;;5.38;;
72573;SDS011;60603;52.548;13.420;2023-11-19T14:06:08;25.73;;;4.90;;
72573;SDS011;60603;52.548;13.420;2023-11-19T14:08:35;13.25;;;3.33;;
72573;SDS011;60603;52.548;13.420;2023-11-19T14:11:02;15.05;;;3.83;;
72573;SDS011;60603;52.548;13.420;2023-11-19T14:13:29;14.73;;;3.83;;
72573;SDS011;60603;52.548;13.420;2023-11-19T14:15:56;11.32;;;2.75;;
72573;SDS011;60603;52.548;13.420;2023-11-19T14:18:23;15.38;;;3.45;;
72573;SDS011;60603;52.548;13.420;2023-11-19T14:20:50;14.52;;;3.38;;
72573;SDS011;60603;52.548;13.420;2023-11-19T14:23:17;17.30;;;3.92;;
72573;SDS011;60603;52.548;13.420;2023-11-19T14:25:43;19.30;;;3.83;;
72573;SDS011;60603;52.548;13.420;2023-11-19T14:28:10;16.00;;;4.57;;
72573;SDS011;60603;52.548;13.420;2023-11-19T14:30:37;15.00;;;4.05;;
72573;SDS011;60603;52.548;13.420;2023-11-19T14:33:05;15.98;;;4.65;;
72573;SDS011;60603;52.548;13.420;2023-11-19T14:35:32;18.10;;;3.60;;
72573;SDS011;60603;52.548;13.420;2023-11-19T14:38:00;12.02;;;3.45;;
72573;SDS011;60603;52.548;13.420;2023-11-19T14:40:31;12.75;;;3.45;;
72573;SDS011;60603;52.548;13.420;2023-11-19T14:43:01;21.85;;;4.57;;
72573;SDS011;60603;52.548;13.420;2023-11-19T14:45:28;13.20;;;4.35;;
72573;SDS011;60603;52.548;13.420;2023-11-19T14:50:31;11.82;;;2.75;;
72573;SDS011;60603;52.548;13.420;2023-11-19T14:52:58;18.95;;;3.58;;